KDUA/DUA METAR and TAF weather

Enter ICAO airport designator
Station Type Date Time Source
KDUA METAR 2018/01/19 17:15 UTC NOAA

KDUA 191715Z AUTO 21017KT 10SM CLR 10/02 A3017 RMK AO2


Station Type Date Time Source
KDUA Decoded METAR 2018/01/19 17:15 UTC NOAA

Durant, Eaker Field Airport, OK, United States (KDUA) 33-56-32N 096-23-40W
Jan 19, 2018 - 12:15 PM EST / 2018.01.19 1715 UTC
Wind: from the SSW (210 degrees) at 20 MPH (17 KT):0
Visibility: 10 mile(s):0
Sky conditions: clear
Temperature: 50 F (10 C)
Dew Point: 35 F (2 C)
Relative Humidity: 57%
Pressure (altimeter): 30.17 in. Hg (1021 hPa)
ob: KDUA 191715Z AUTO 21017KT 10SM CLR 10/02 A3017 RMK AO2
cycle: 17

Station Type Date Time Source
KDUA TAF UTC NOAA

Error!


Example: see airport list